Terminal Aerodrome Forecast
Issued by NWS

Home | Current Version | Previous Version | Text Only | Print | Product List | Glossary On
Versions: 1 2 3 4 5 6 7 8 9 10 11 12 13 14 15
000
FTUS42 KTBW 291400 AAA
TAFPGD
TAF AMD
KPGD 291451Z 2915/3012 27010KT P6SM VCTS SCT025CB SCT100 BKN250
      TEMPO 2915/2916 VRB13G20KT 4SM SHRA BKN025
     FM291600 27013G20KT P6SM VCTS SCT030CB BKN100
     FM292200 27010KT P6SM VCTS SCT030CB BKN100
     FM300100 25005KT P6SM VCSH SCT025 BKN100=

USA.gov is the U.S. government's official web portal to all federal, state and local government web resources and services.